createdAt,value
2023-03-03T00:01:36.228Z,24.05
2023-03-03T00:04:25.515Z,25.17
2023-03-03T00:07:15.556Z,23.65
2023-03-03T00:10:05.226Z,22.98
2023-03-03T00:12:54.468Z,24.48
2023-03-03T00:15:44.258Z,23.33
2023-03-03T00:18:38.005Z,26.60
2023-03-03T00:21:30.880Z,30.77
2023-03-03T00:24:24.186Z,25.42
2023-03-03T00:27:24.554Z,27.83
2023-03-03T00:30:25.811Z,28.83
2023-03-03T00:33:29.244Z,34.38
2023-03-03T00:36:34.777Z,32.17
2023-03-03T00:39:32.989Z,32.35
2023-03-03T00:42:22.232Z,31.73
2023-03-03T00:45:30.033Z,49.92
2023-03-03T00:48:29.441Z,31.17
2023-03-03T00:51:30.872Z,31.17
2023-03-03T00:54:20.029Z,33.33
2023-03-03T00:57:09.384Z,37.25
2023-03-03T00:59:59.436Z,33.65
2023-03-03T01:02:50.564Z,37.60
2023-03-03T01:05:39.882Z,34.72
2023-03-03T01:08:30.563Z,38.05
2023-03-03T01:11:24.399Z,37.13
2023-03-03T01:14:13.605Z,35.53
2023-03-03T01:17:02.856Z,41.33
2023-03-03T01:19:52.136Z,39.72
2023-03-03T01:22:41.706Z,52.83
2023-03-03T01:25:34.681Z,55.50
2023-03-03T01:28:24.494Z,42.63
2023-03-03T01:31:14.588Z,47.55
2023-03-03T01:34:03.812Z,38.47
2023-03-03T01:36:53.063Z,34.88
2023-03-03T01:39:42.477Z,30.95
2023-03-03T01:42:33.477Z,33.60
2023-03-03T01:45:26.754Z,34.05
2023-03-03T01:51:21.775Z,37.50
2023-03-03T01:54:18.412Z,30.95
2023-03-03T01:57:15.141Z,32.20
2023-03-03T02:00:08.565Z,33.83
2023-03-03T02:03:03.686Z,32.63
2023-03-03T02:05:57.164Z,31.55
2023-03-03T02:09:01.517Z,41.03
2023-03-03T02:11:56.045Z,36.28
2023-03-03T02:14:45.538Z,32.95
2023-03-03T02:17:36.215Z,27.02
2023-03-03T02:20:45.323Z,30.40
2023-03-03T02:23:44.276Z,29.77
2023-03-03T02:26:38.358Z,31.98
2023-03-03T02:29:30.761Z,26.10
2023-03-03T02:32:20.656Z,29.13
2023-03-03T02:35:33.441Z,27.40
2023-03-03T02:38:28.372Z,30.30
2023-03-03T02:41:29.050Z,29.38
2023-03-03T02:44:23.667Z,29.05
2023-03-03T02:47:13.066Z,36.58
2023-03-03T02:50:02.262Z,32.55
2023-03-03T02:52:51.579Z,33.88
2023-03-03T02:55:41.619Z,32.28
2023-03-03T02:58:31.286Z,32.78
2023-03-03T03:01:22.512Z,32.83
2023-03-03T03:04:16.913Z,36.88
2023-03-03T03:07:08.737Z,34.53
2023-03-03T03:09:59.917Z,35.05
2023-03-03T03:12:51.826Z,36.10
2023-03-03T03:15:41.608Z,32.42
2023-03-03T03:18:32.217Z,33.83
2023-03-03T03:21:21.907Z,31.73
2023-03-03T03:24:11.791Z,36.55
2023-03-03T03:27:05.408Z,35.67
2023-03-03T03:29:55.124Z,36.72
2023-03-03T03:32:45.030Z,28.05
2023-03-03T03:35:37.244Z,29.20
2023-03-03T03:38:29.855Z,29.50
2023-03-03T03:41:19.263Z,24.50
2023-03-03T03:44:08.645Z,27.33
2023-03-03T03:46:58.027Z,28.48
2023-03-03T03:49:49.333Z,30.15
2023-03-03T03:52:40.028Z,27.33
2023-03-03T03:55:30.135Z,26.13
2023-03-03T03:58:20.632Z,25.73
2023-03-03T04:01:16.361Z,24.50
2023-03-03T04:04:09.839Z,25.00
2023-03-03T04:06:59.635Z,28.15
2023-03-03T04:09:51.245Z,28.65
2023-03-03T04:12:41.366Z,26.50
2023-03-03T04:15:34.883Z,25.00
2023-03-03T04:18:24.984Z,29.02
2023-03-03T04:21:15.826Z,28.33
2023-03-03T04:24:06.980Z,26.33
2023-03-03T04:26:58.033Z,26.73
2023-03-03T04:29:47.334Z,26.15
2023-03-03T04:32:36.689Z,26.50
2023-03-03T04:35:28.580Z,26.45
2023-03-03T04:38:19.197Z,26.88
2023-03-03T04:41:10.224Z,25.20
2023-03-03T04:44:02.821Z,27.45
2023-03-03T04:46:52.211Z,26.30
2023-03-03T04:49:42.107Z,25.08
2023-03-03T04:52:31.790Z,34.75
2023-03-03T04:55:21.661Z,80.32
2023-03-03T04:58:16.080Z,90.18
2023-03-03T05:01:07.771Z,140.10
2023-03-03T05:04:01.017Z,141.65
2023-03-03T05:06:50.272Z,103.00
2023-03-03T05:09:39.704Z,47.58
2023-03-03T05:12:29.337Z,68.88
2023-03-03T05:15:19.471Z,40.72
2023-03-03T05:18:11.302Z,25.90
2023-03-03T05:21:00.665Z,24.88
2023-03-03T05:23:49.859Z,25.70
2023-03-03T05:26:39.300Z,23.38
2023-03-03T05:29:31.500Z,23.60
2023-03-03T05:32:20.721Z,21.20
2023-03-03T05:35:12.018Z,22.35
2023-03-03T05:38:03.164Z,21.10
2023-03-03T05:40:54.797Z,20.80
2023-03-03T05:43:44.582Z,18.45
2023-03-03T05:46:34.019Z,17.60
2023-03-03T05:49:23.544Z,19.30
2023-03-03T05:52:17.406Z,17.33
2023-03-03T05:55:08.006Z,19.05
2023-03-03T05:57:57.369Z,17.45
2023-03-03T06:00:46.679Z,17.60
2023-03-03T06:03:36.033Z,18.10
2023-03-03T06:06:28.428Z,17.35
2023-03-03T06:09:19.335Z,20.42
2023-03-03T06:12:08.969Z,17.70
2023-03-03T06:14:58.214Z,19.92
2023-03-03T06:17:47.412Z,17.95
2023-03-03T06:20:36.758Z,17.85
2023-03-03T06:23:26.221Z,19.52
2023-03-03T06:26:17.289Z,19.02
2023-03-03T06:29:07.231Z,16.77
2023-03-03T06:31:56.767Z,18.73
2023-03-03T06:34:46.348Z,15.98
2023-03-03T06:37:35.611Z,18.55
2023-03-03T06:40:24.985Z,17.70
2023-03-03T06:43:15.883Z,18.17
2023-03-03T06:46:05.697Z,17.33
2023-03-03T06:48:55.578Z,18.48
2023-03-03T06:51:46.559Z,17.52
2023-03-03T06:54:35.961Z,18.35
2023-03-03T06:57:28.993Z,20.10
2023-03-03T07:00:25.043Z,19.55
2023-03-03T07:03:20.545Z,18.30
2023-03-03T07:06:22.870Z,20.15
2023-03-03T07:09:21.831Z,18.63
2023-03-03T07:12:16.940Z,19.10
2023-03-03T07:15:17.679Z,19.48
2023-03-03T07:18:26.704Z,19.63
2023-03-03T07:21:20.897Z,18.52
2023-03-03T07:24:29.013Z,21.08
2023-03-03T07:27:25.609Z,18.67
2023-03-03T07:30:29.101Z,19.70
2023-03-03T07:33:28.191Z,18.88
2023-03-03T07:36:30.514Z,20.98
2023-03-03T07:39:32.647Z,17.27
2023-03-03T07:42:27.885Z,17.15
2023-03-03T07:45:35.588Z,17.35
2023-03-03T07:48:32.910Z,20.30
2023-03-03T07:51:27.804Z,16.60
2023-03-03T07:54:32.063Z,16.33
2023-03-03T07:57:26.994Z,16.13
2023-03-03T08:01:13.566Z,18.77
2023-03-03T08:04:07.491Z,18.73
2023-03-03T08:06:58.690Z,20.27
2023-03-03T08:09:53.385Z,18.38
2023-03-03T08:12:45.207Z,19.40
2023-03-03T08:15:39.084Z,19.85
2023-03-03T08:18:35.801Z,17.92
2023-03-03T08:21:27.656Z,19.35
2023-03-03T08:24:16.935Z,20.27
2023-03-03T08:27:06.515Z,20.92
2023-03-03T08:29:55.727Z,20.95
2023-03-03T08:32:45.122Z,21.35
2023-03-03T08:35:34.416Z,20.30
2023-03-03T08:38:25.280Z,20.05
2023-03-03T08:41:14.964Z,22.98
2023-03-03T08:44:04.696Z,22.75
2023-03-03T08:46:53.865Z,23.77
2023-03-03T08:49:43.158Z,23.83
2023-03-03T08:52:32.542Z,25.77
2023-03-03T08:55:23.337Z,26.02
2023-03-03T08:58:12.589Z,23.40
2023-03-03T09:01:01.906Z,23.05
2023-03-03T09:03:51.212Z,22.73
2023-03-03T09:06:40.849Z,29.00
2023-03-03T09:09:30.163Z,33.75
2023-03-03T09:12:26.353Z,28.13
2023-03-03T09:15:23.650Z,51.30
2023-03-03T09:18:18.166Z,47.60
2023-03-03T09:21:24.350Z,39.65
2023-03-03T09:24:26.859Z,26.90
2023-03-03T09:27:28.461Z,25.93
2023-03-03T09:30:37.449Z,25.38
2023-03-03T09:33:41.850Z,24.05
2023-03-03T09:36:37.245Z,25.25
2023-03-03T09:39:28.328Z,25.10
2023-03-03T09:42:51.028Z,27.38
2023-03-03T09:45:59.003Z,26.77
2023-03-03T09:49:03.361Z,26.77
2023-03-03T09:52:23.190Z,29.00
2023-03-03T09:55:38.234Z,29.40
2023-03-03T09:58:47.673Z,29.05
2023-03-03T10:01:56.957Z,29.13
2023-03-03T10:05:16.360Z,29.85
2023-03-03T10:08:28.079Z,29.23
2023-03-03T10:11:26.958Z,27.40
2023-03-03T10:14:44.621Z,26.42
2023-03-03T10:17:49.633Z,26.08
2023-03-03T10:20:51.321Z,29.13
2023-03-03T10:23:58.896Z,28.42
2023-03-03T10:27:13.526Z,29.45
2023-03-03T10:30:14.563Z,29.60
2023-03-03T10:33:11.522Z,32.60
2023-03-03T10:36:20.033Z,24.52
2023-03-03T10:39:40.984Z,27.73
2023-03-03T10:43:07.860Z,25.10
2023-03-03T10:46:34.239Z,17.50
2023-03-03T10:49:44.955Z,15.40
2023-03-03T10:52:45.094Z,18.00
2023-03-03T10:55:42.086Z,17.45
2023-03-03T10:59:08.164Z,18.83
2023-03-03T11:02:02.561Z,18.42
2023-03-03T11:05:17.129Z,21.38
2023-03-03T11:08:13.029Z,29.67
2023-03-03T11:11:14.225Z,25.95
2023-03-03T11:14:11.317Z,28.88
2023-03-03T11:17:13.073Z,31.73
2023-03-03T11:20:13.010Z,26.33
2023-03-03T11:23:29.121Z,24.27
2023-03-03T11:26:31.165Z,33.65
2023-03-03T11:30:09.615Z,21.40
2023-03-03T11:33:06.688Z,24.00
2023-03-03T11:36:11.701Z,20.05
2023-03-03T11:39:03.402Z,23.58
2023-03-03T11:42:09.402Z,26.75
2023-03-03T11:45:04.399Z,24.77
2023-03-03T11:48:03.648Z,24.10
2023-03-03T11:51:01.105Z,25.20
2023-03-03T11:54:00.829Z,25.90
2023-03-03T11:56:50.544Z,32.67
2023-03-03T11:59:50.259Z,41.22
2023-03-03T12:03:14.438Z,46.17
2023-03-03T12:06:17.630Z,42.28
2023-03-03T12:09:37.404Z,39.30
2023-03-03T12:12:34.361Z,44.10
2023-03-03T12:15:34.827Z,48.58
2023-03-03T12:18:48.518Z,47.00
2023-03-03T12:21:55.928Z,45.17
2023-03-03T12:25:07.769Z,48.45
2023-03-03T12:28:05.693Z,43.75
2023-03-03T12:31:25.223Z,42.72
2023-03-03T12:34:25.478Z,40.25
2023-03-03T12:37:41.050Z,42.13
2023-03-03T12:40:35.097Z,39.88
2023-03-03T12:43:45.031Z,37.80
2023-03-03T12:46:45.991Z,35.35
2023-03-03T12:49:52.104Z,35.20
2023-03-03T12:53:00.000Z,31.85
2023-03-03T12:55:54.850Z,32.27
2023-03-03T12:58:55.737Z,33.53
2023-03-03T13:02:14.724Z,35.83
2023-03-03T13:05:20.852Z,30.35
2023-03-03T13:08:35.127Z,36.10
2023-03-03T13:11:55.172Z,35.00
2023-03-03T13:14:53.797Z,51.70
2023-03-03T13:17:53.696Z,36.67
2023-03-03T13:20:50.365Z,35.15
2023-03-03T13:23:52.527Z,35.75
2023-03-03T13:26:46.289Z,38.22
2023-03-03T13:29:41.807Z,39.88
2023-03-03T13:32:42.765Z,36.65
2023-03-03T13:35:42.420Z,44.65
2023-03-03T13:38:42.314Z,32.20
2023-03-03T13:41:50.909Z,36.92
2023-03-03T13:44:51.553Z,37.30
2023-03-03T13:47:54.422Z,36.60
2023-03-03T13:50:52.430Z,35.83
2023-03-03T13:53:53.963Z,28.15
2023-03-03T13:57:21.487Z,31.17
2023-03-03T14:00:27.922Z,24.70
2023-03-03T14:04:01.902Z,19.20
2023-03-03T14:07:09.847Z,25.85
2023-03-03T14:10:09.975Z,32.28
2023-03-03T14:13:07.874Z,27.58
2023-03-03T14:16:06.021Z,31.38
2023-03-03T14:19:04.289Z,38.95
2023-03-03T14:22:08.281Z,41.63
2023-03-03T14:25:09.748Z,51.65
2023-03-03T14:28:14.075Z,45.20
2023-03-03T14:31:22.685Z,47.40
2023-03-03T14:34:38.712Z,66.97
2023-03-03T14:37:30.774Z,35.58
2023-03-03T14:40:39.226Z,36.15
2023-03-03T14:43:42.838Z,44.28
2023-03-03T14:46:41.780Z,31.40
2023-03-03T14:49:36.566Z,28.63
2023-03-03T14:52:28.826Z,27.90
2023-03-03T14:55:37.284Z,36.07
2023-03-03T14:58:36.342Z,36.35
2023-03-03T15:01:33.163Z,19.02
2023-03-03T15:04:28.824Z,18.50
2023-03-03T15:07:32.847Z,15.63
2023-03-03T15:10:36.737Z,16.83
2023-03-03T15:13:36.617Z,21.85
2023-03-03T15:16:32.954Z,16.95
2023-03-03T15:19:49.492Z,16.25
2023-03-03T15:22:50.222Z,33.15
2023-03-03T15:25:53.722Z,16.00
2023-03-03T15:29:00.609Z,14.35
2023-03-03T15:32:00.457Z,17.65
2023-03-03T15:35:00.227Z,17.40
2023-03-03T15:37:58.339Z,18.55
2023-03-03T15:40:54.501Z,18.27
2023-03-03T15:43:58.679Z,17.42
2023-03-03T15:47:24.419Z,15.30
2023-03-03T15:50:31.465Z,26.25
2023-03-03T15:53:45.147Z,48.05
2023-03-03T16:00:07.336Z,22.08
2023-03-03T16:03:14.875Z,24.02
2023-03-03T16:06:12.456Z,20.35
2023-03-03T16:09:11.185Z,20.10
2023-03-03T16:12:13.797Z,24.70
2023-03-03T16:15:43.353Z,22.63
2023-03-03T16:18:50.894Z,20.85
2023-03-03T16:22:12.499Z,18.05
2023-03-03T16:25:21.907Z,25.00
2023-03-03T16:28:20.359Z,31.15
2023-03-03T16:31:18.481Z,18.95
2023-03-03T16:34:18.774Z,23.00
2023-03-03T16:37:19.866Z,25.05
2023-03-03T16:40:19.301Z,19.85
2023-03-03T16:43:24.404Z,39.25
2023-03-03T16:46:31.344Z,21.40
2023-03-03T16:49:29.899Z,15.82
2023-03-03T16:52:26.825Z,16.73
2023-03-03T16:55:21.240Z,16.40
2023-03-03T16:58:31.809Z,13.25
2023-03-03T17:01:32.596Z,12.75
2023-03-03T17:04:41.110Z,37.63
2023-03-03T17:07:45.644Z,15.63
2023-03-03T17:10:43.526Z,14.23
2023-03-03T17:14:04.418Z,19.27
2023-03-03T17:17:03.987Z,20.83
2023-03-03T17:20:09.173Z,14.57
2023-03-03T17:23:20.057Z,15.82
2023-03-03T17:26:32.681Z,28.30
2023-03-03T17:30:01.893Z,16.17
2023-03-03T17:33:15.174Z,14.10
2023-03-03T17:36:26.558Z,13.95
2023-03-03T17:39:51.770Z,16.65
2023-03-03T17:42:52.200Z,25.52
2023-03-03T17:45:45.970Z,11.73
2023-03-03T17:49:08.040Z,15.73
2023-03-03T17:52:19.602Z,13.32
2023-03-03T17:55:25.616Z,15.00
2023-03-03T17:58:49.233Z,13.52
2023-03-03T18:02:00.992Z,15.10
2023-03-03T18:05:15.020Z,15.45
2023-03-03T18:08:20.960Z,14.85
2023-03-03T18:11:24.452Z,14.93
2023-03-03T18:14:53.762Z,17.60
2023-03-03T18:18:03.978Z,17.50
2023-03-03T18:21:04.435Z,16.63
2023-03-03T18:23:53.712Z,19.08
2023-03-03T18:26:43.860Z,11.90
2023-03-03T18:29:33.210Z,16.45
2023-03-03T18:32:25.273Z,17.77
2023-03-03T18:35:26.357Z,15.05
2023-03-03T18:38:39.661Z,15.30
2023-03-03T18:41:31.540Z,17.98
2023-03-03T18:44:30.694Z,26.33
2023-03-03T18:47:43.194Z,19.70
2023-03-03T18:50:36.889Z,29.70
2023-03-03T18:53:31.036Z,17.17
2023-03-03T18:56:50.975Z,17.55
2023-03-03T18:59:55.729Z,39.33
2023-03-03T19:02:54.678Z,23.33
2023-03-03T19:05:54.240Z,26.55
2023-03-03T19:08:58.550Z,24.63
2023-03-03T19:11:56.241Z,32.55
2023-03-03T19:14:48.016Z,40.05
2023-03-03T19:17:59.038Z,37.53
2023-03-03T19:20:57.573Z,45.17
2023-03-03T19:24:00.209Z,47.75
2023-03-03T19:27:36.435Z,32.40
2023-03-03T19:30:53.031Z,23.00
2023-03-03T19:33:57.297Z,30.55
2023-03-03T19:37:06.064Z,24.60
2023-03-03T19:40:13.509Z,33.20
2023-03-03T19:43:18.705Z,21.45
2023-03-03T19:46:33.715Z,16.33
2023-03-03T19:50:10.807Z,19.67
2023-03-03T19:53:16.575Z,26.05
2023-03-03T19:56:22.574Z,27.00
2023-03-03T19:59:27.009Z,23.90
2023-03-03T20:02:45.058Z,19.02
2023-03-03T20:05:43.341Z,17.38
2023-03-03T20:08:42.451Z,23.45
2023-03-03T20:11:48.431Z,19.73
2023-03-03T20:14:49.214Z,17.58
2023-03-03T20:18:01.143Z,18.20
2023-03-03T20:21:13.466Z,19.15
2023-03-03T20:24:25.600Z,20.45
2023-03-03T20:27:20.797Z,19.98
2023-03-03T20:30:48.656Z,25.25
2023-03-03T20:33:51.177Z,18.35
2023-03-03T20:36:57.325Z,18.53
2023-03-03T20:40:04.689Z,20.48
2023-03-03T20:43:06.535Z,22.30
2023-03-03T20:46:09.855Z,23.48
2023-03-03T20:49:38.760Z,23.45
2023-03-03T20:52:41.588Z,20.13
2023-03-03T20:55:47.663Z,20.27
2023-03-03T20:58:52.948Z,19.02
2023-03-03T21:01:53.282Z,19.05
2023-03-03T21:04:42.535Z,20.90
2023-03-03T21:07:31.802Z,23.90
2023-03-03T21:10:25.183Z,18.77
2023-03-03T21:13:30.041Z,17.80
2023-03-03T21:16:33.324Z,17.75
2023-03-03T21:22:18.241Z,20.98
2023-03-03T21:25:08.582Z,24.75
2023-03-03T21:28:18.147Z,23.65
2023-03-03T21:31:16.961Z,24.48
2023-03-03T21:34:29.074Z,30.05
2023-03-03T21:37:49.997Z,33.05
2023-03-03T21:40:39.945Z,29.67
2023-03-03T21:43:37.478Z,28.35
2023-03-03T21:46:27.352Z,30.75
2023-03-03T21:49:16.644Z,29.85
2023-03-03T21:52:07.746Z,32.70
2023-03-03T21:54:56.970Z,30.02
2023-03-03T21:57:46.244Z,27.27
2023-03-03T22:00:35.427Z,25.17
2023-03-03T22:03:26.040Z,26.88
2023-03-03T22:06:15.249Z,39.78
2023-03-03T22:09:06.392Z,77.53
2023-03-03T22:11:55.687Z,124.07
2023-03-03T22:14:45.019Z,79.75
2023-03-03T22:17:34.188Z,55.63
2023-03-03T22:20:23.368Z,28.52
2023-03-03T22:23:12.855Z,33.67
2023-03-03T22:26:03.569Z,47.47
2023-03-03T22:28:52.838Z,39.17
2023-03-03T22:31:42.070Z,28.20
2023-03-03T22:34:31.387Z,27.70
2023-03-03T22:37:20.586Z,29.15
2023-03-03T22:40:11.789Z,27.88
2023-03-03T22:43:02.406Z,25.45
2023-03-03T22:45:51.937Z,17.77
2023-03-03T22:48:41.855Z,13.43
2023-03-03T22:51:31.083Z,32.75
2023-03-03T22:54:20.311Z,13.90
2023-03-03T22:57:13.240Z,14.02
2023-03-03T23:00:03.980Z,13.60
2023-03-03T23:02:53.503Z,11.57
2023-03-03T23:05:42.886Z,11.90
2023-03-03T23:08:32.190Z,12.18
2023-03-03T23:11:21.808Z,14.02
2023-03-03T23:14:11.106Z,13.18
2023-03-03T23:17:01.856Z,14.25
2023-03-03T23:19:51.781Z,12.88
2023-03-03T23:22:41.043Z,14.20
2023-03-03T23:25:30.618Z,13.55
2023-03-03T23:28:20.054Z,13.35
2023-03-03T23:31:09.480Z,14.10
2023-03-03T23:34:00.217Z,12.57
2023-03-03T23:36:49.449Z,13.07
2023-03-03T23:39:40.670Z,21.35
2023-03-03T23:42:30.996Z,16.98
2023-03-03T23:45:20.336Z,15.90
2023-03-03T23:48:09.620Z,16.60
2023-03-03T23:51:01.581Z,16.48
2023-03-03T23:53:50.808Z,14.65
2023-03-03T23:56:40.062Z,16.52
2023-03-03T23:59:29.328Z,15.05
